Time;durP1;ratioP1;P1;durP2;ratioP2;P2;SDS_P1;SDS_P2;PMS_P1;PMS_P2;Temp;Humidity;BMP_temperature;BMP_pressure;BME280_temperature;BME280_humidity;BME280_pressure;Samples;Min_cycle;Max_cycle;Signal;HPM_P1;HPM_P2
2021/04/24 00:01:59;;;;;;;42.50;17.15;;;8.40;92.40;;;;;;5097268;28;20487;-71
2021/04/24 00:04:26;;;;;;;33.28;17.55;;;8.30;92.50;;;;;;5115669;28;20035;-73
2021/04/24 00:06:52;;;;;;;37.55;19.30;;;8.30;92.10;;;;;;5097424;28;20089;-71
2021/04/24 00:09:18;;;;;;;29.60;17.05;;;8.20;91.30;;;;;;5115678;28;20023;-73
2021/04/24 00:11:44;;;;;;;48.92;18.95;;;8.20;91.60;;;;;;5097331;28;20431;-71
2021/04/24 00:14:10;;;;;;;41.40;17.50;;;8.20;92.00;;;;;;5115638;28;20049;-70
2021/04/24 00:16:36;;;;;;;40.85;18.25;;;8.20;91.20;;;;;;5097228;28;20031;-71
2021/04/24 00:19:03;;;;;;;33.25;18.00;;;8.20;91.30;;;;;;5115714;28;20076;-72
2021/04/24 00:21:29;;;;;;;35.53;19.05;;;8.10;91.60;;;;;;5115367;28;20047;-71
2021/04/24 00:23:55;;;;;;;37.60;18.30;;;8.10;91.60;;;;;;5115960;28;20028;-70
2021/04/24 00:26:21;;;;;;;39.42;17.85;;;8.00;92.50;;;;;;5114891;28;20047;-72
2021/04/24 00:28:47;;;;;;;38.50;18.73;;;8.00;92.20;;;;;;5096948;28;20054;-73
2021/04/24 00:31:13;;;;;;;33.38;17.48;;;8.00;92.30;;;;;;5096908;28;20034;-71
2021/04/24 00:33:39;;;;;;;30.30;17.83;;;8.00;91.80;;;;;;5096872;28;20027;-73
2021/04/24 00:36:05;;;;;;;39.40;18.45;;;8.00;91.60;;;;;;5114866;28;20023;-72
2021/04/24 00:38:31;;;;;;;39.80;18.35;;;8.00;92.00;;;;;;5115098;28;20026;-73
2021/04/24 00:40:57;;;;;;;37.08;18.20;;;7.90;91.80;;;;;;5114984;28;20039;-72
2021/04/24 00:43:23;;;;;;;30.55;16.90;;;7.90;91.20;;;;;;5115027;28;20464;-72
2021/04/24 00:45:48;;;;;;;31.73;16.50;;;7.80;91.10;;;;;;5114797;28;20456;-72
2021/04/24 00:48:14;;;;;;;30.02;15.68;;;7.70;91.70;;;;;;5096559;28;20461;-70
2021/04/24 00:50:41;;;;;;;31.45;16.10;;;7.70;91.70;;;;;;5114887;28;20024;-72
2021/04/24 00:53:11;;;;;;;29.65;15.43;;;7.50;92.30;;;;;;5114810;28;20488;-71
2021/04/24 00:55:37;;;;;;;29.42;15.35;;;7.60;91.70;;;;;;5114744;28;20106;-72
2021/04/24 00:58:04;;;;;;;29.30;13.85;;;7.60;91.70;;;;;;5114738;28;20031;-72
2021/04/24 01:00:31;;;;;;;29.20;14.95;;;7.60;91.50;;;;;;5114561;28;20088;-71
2021/04/24 01:02:58;;;;;;;30.00;14.45;;;7.60;91.50;;;;;;5114582;28;20026;-72
2021/04/24 01:05:28;;;;;;;35.05;14.80;;;7.60;91.40;;;;;;5114555;28;20027;-70
2021/04/24 01:07:53;;;;;;;29.05;15.15;;;7.60;91.70;;;;;;5114543;28;20052;-71
2021/04/24 01:10:20;;;;;;;26.50;14.48;;;7.60;92.00;;;;;;5114478;28;20136;-71
2021/04/24 01:12:48;;;;;;;27.08;15.70;;;7.50;92.10;;;;;;5114410;28;20015;-71
2021/04/24 01:15:16;;;;;;;29.92;15.30;;;7.50;92.10;;;;;;5114126;28;20036;-73
2021/04/24 01:17:43;;;;;;;30.05;15.77;;;7.60;92.10;;;;;;5114170;28;20035;-71
2021/04/24 01:20:11;;;;;;;30.40;14.95;;;7.50;92.90;;;;;;5113941;28;20038;-71
2021/04/24 01:22:37;;;;;;;30.20;15.98;;;7.30;92.90;;;;;;5114327;28;20027;-72
2021/04/24 01:25:08;;;;;;;28.65;16.35;;;7.30;92.90;;;;;;5095768;28;20031;-72
2021/04/24 01:27:34;;;;;;;32.47;17.38;;;7.20;93.60;;;;;;5113989;28;20076;-72
2021/04/24 01:30:00;;;;;;;35.83;17.83;;;7.10;93.20;;;;;;5113839;28;20031;-73
2021/04/24 01:32:26;;;;;;;26.55;14.70;;;7.00;93.30;;;;;;5114087;28;20031;-71
2021/04/24 01:34:52;;;;;;;30.20;15.02;;;7.00;93.80;;;;;;5114122;28;20487;-71
2021/04/24 01:37:18;;;;;;;34.22;15.20;;;7.10;93.70;;;;;;5113979;28;20057;-71
2021/04/24 01:39:44;;;;;;;35.63;15.93;;;7.10;93.60;;;;;;5095941;28;20135;-72
2021/04/24 01:42:10;;;;;;;24.58;13.85;;;7.10;93.20;;;;;;5095490;28;20482;-72
2021/04/24 01:44:35;;;;;;;28.42;13.93;;;7.10;93.30;;;;;;5095639;28;20026;-74
2021/04/24 01:47:01;;;;;;;24.42;14.13;;;7.10;92.90;;;;;;5114141;28;20027;-72
2021/04/24 01:49:27;;;;;;;33.90;15.50;;;7.00;93.20;;;;;;5095572;28;20049;-72
2021/04/24 01:51:53;;;;;;;32.20;16.15;;;7.00;93.40;;;;;;5095406;28;20031;-72
2021/04/24 01:54:19;;;;;;;38.10;19.33;;;6.90;94.00;;;;;;5095536;28;20031;-72
2021/04/24 01:56:46;;;;;;;35.28;18.17;;;6.90;94.10;;;;;;5113942;28;20028;-72
2021/04/24 01:59:14;;;;;;;24.25;13.63;;;6.80;94.20;;;;;;5113715;28;20030;-72
2021/04/24 02:01:40;;;;;;;27.35;13.82;;;6.80;94.10;;;;;;5113528;28;20038;-73
2021/04/24 02:04:06;;;;;;;27.70;14.63;;;6.70;94.10;;;;;;5113644;28;20460;-71
2021/04/24 02:06:32;;;;;;;23.55;12.38;;;6.60;94.30;;;;;;5095296;28;20024;-71
2021/04/24 02:08:58;;;;;;;32.47;14.13;;;6.60;94.80;;;;;;5113586;28;20024;-71
2021/04/24 02:11:24;;;;;;;37.72;16.83;;;6.60;95.20;;;;;;5113503;28;20062;-72
2021/04/24 02:13:51;;;;;;;38.33;17.70;;;6.60;95.00;;;;;;5095213;28;20464;-72
2021/04/24 02:16:17;;;;;;;29.90;15.25;;;6.70;94.70;;;;;;5095195;28;20034;-72
2021/04/24 02:18:43;;;;;;;25.15;13.02;;;6.70;94.60;;;;;;5113184;28;20510;-72
2021/04/24 02:21:09;;;;;;;22.90;12.85;;;6.60;94.50;;;;;;5113344;28;20110;-73
2021/04/24 02:23:40;;;;;;;24.48;13.50;;;6.60;94.00;;;;;;5113161;28;20111;-74
2021/04/24 02:26:08;;;;;;;25.38;13.55;;;6.50;94.10;;;;;;5113040;28;20051;-72
2021/04/24 02:28:34;;;;;;;25.10;12.48;;;6.50;94.10;;;;;;5115177;28;20059;-71
2021/04/24 02:30:59;;;;;;;32.72;14.88;;;6.40;94.70;;;;;;5117569;28;20073;-73
2021/04/24 02:33:25;;;;;;;33.95;15.00;;;6.40;94.10;;;;;;5117050;28;20031;-72
2021/04/24 02:35:54;;;;;;;29.85;15.15;;;6.50;94.20;;;;;;5117801;28;20027;-73
2021/04/24 02:38:33;;;;;;;35.05;16.27;;;6.50;94.20;;;;;;5117399;28;20034;-73
2021/04/24 02:41:03;;;;;;;35.15;15.30;;;6.50;94.70;;;;;;5117370;28;20077;-72
2021/04/24 02:43:30;;;;;;;33.55;16.58;;;6.40;95.00;;;;;;5117423;28;20024;-71
2021/04/24 02:45:56;;;;;;;35.35;16.25;;;6.40;94.70;;;;;;5117205;28;20019;-72
2021/04/24 02:48:22;;;;;;;32.97;15.45;;;6.40;94.70;;;;;;5117179;28;20458;-70
2021/04/24 02:50:48;;;;;;;39.45;15.95;;;6.50;94.60;;;;;;5117227;28;20032;-74
2021/04/24 02:53:14;;;;;;;33.25;14.57;;;6.50;94.40;;;;;;5117130;28;20550;-73
2021/04/24 02:55:40;;;;;;;32.35;14.93;;;6.50;94.60;;;;;;5116762;28;20023;-71
2021/04/24 02:58:06;;;;;;;25.85;14.88;;;6.50;94.20;;;;;;5098452;28;20028;-72
2021/04/24 03:00:32;;;;;;;35.03;14.90;;;6.40;94.20;;;;;;5116650;28;20104;-71
2021/04/24 03:03:04;;;;;;;27.83;15.48;;;6.40;94.20;;;;;;5116867;28;20027;-72
2021/04/24 03:05:31;;;;;;;26.85;14.07;;;6.40;94.30;;;;;;5116837;28;20107;-69
2021/04/24 03:07:57;;;;;;;27.60;13.25;;;6.40;94.30;;;;;;5116830;28;20106;-70
2021/04/24 03:10:24;;;;;;;30.65;14.50;;;6.30;94.30;;;;;;5098476;28;20114;-70
2021/04/24 03:12:51;;;;;;;23.77;13.63;;;6.30;94.60;;;;;;5116756;28;20067;-72
2021/04/24 03:15:17;;;;;;;31.98;14.52;;;6.20;94.40;;;;;;5098352;28;20472;-71
2021/04/24 03:17:43;;;;;;;23.92;14.45;;;6.20;94.70;;;;;;5116706;28;20024;-71
2021/04/24 03:20:12;;;;;;;36.15;14.90;;;6.20;94.70;;;;;;5097877;28;20084;-72
2021/04/24 03:22:38;;;;;;;24.48;12.93;;;6.20;94.60;;;;;;5116676;28;20069;-72
2021/04/24 03:25:07;;;;;;;24.92;13.55;;;6.20;94.60;;;;;;5116137;28;20027;-70
2021/04/24 03:27:33;;;;;;;28.65;12.88;;;6.20;94.50;;;;;;5116535;28;20031;-73
2021/04/24 03:29:59;;;;;;;31.17;13.32;;;6.20;94.50;;;;;;5116408;28;20456;-73
2021/04/24 03:32:25;;;;;;;33.25;13.45;;;6.20;94.90;;;;;;5098156;28;20054;-74
2021/04/24 03:34:51;;;;;;;31.52;12.77;;;6.20;95.00;;;;;;5116038;28;20484;-70
2021/04/24 03:37:17;;;;;;;29.35;14.10;;;6.20;95.00;;;;;;5116572;28;20028;-72
2021/04/24 03:39:43;;;;;;;27.65;13.00;;;6.20;95.50;;;;;;5115733;28;20463;-71
2021/04/24 03:42:11;;;;;;;32.45;14.80;;;6.20;95.60;;;;;;5116119;28;20112;-70
2021/04/24 03:44:37;;;;;;;27.60;14.27;;;6.20;95.40;;;;;;5116225;28;20076;-72
2021/04/24 03:47:03;;;;;;;26.35;14.05;;;6.20;95.50;;;;;;5116100;28;20031;-71
2021/04/24 03:49:29;;;;;;;30.38;15.23;;;6.20;96.40;;;;;;5115939;28;20418;-69
2021/04/24 03:51:54;;;;;;;31.50;15.77;;;6.20;95.80;;;;;;5116328;28;20067;-70
2021/04/24 03:54:20;;;;;;;33.22;14.63;;;6.10;96.00;;;;;;5115945;28;20038;-69
2021/04/24 03:56:46;;;;;;;33.55;15.90;;;6.10;96.00;;;;;;5115917;28;20094;-70
2021/04/24 03:59:12;;;;;;;31.58;15.98;;;6.10;95.80;;;;;;5115624;28;20088;-70
2021/04/24 04:01:38;;;;;;;33.17;16.38;;;6.10;95.80;;;;;;5115779;28;20071;-70
2021/04/24 04:04:04;;;;;;;34.13;15.73;;;6.00;95.70;;;;;;5115744;28;20110;-71
2021/04/24 04:06:30;;;;;;;33.42;14.98;;;6.00;95.90;;;;;;5097479;28;20064;-70
2021/04/24 04:08:56;;;;;;;33.13;14.57;;;6.00;96.00;;;;;;5115718;28;20032;-71
2021/04/24 04:11:21;;;;;;;36.88;14.88;;;6.10;96.40;;;;;;5115697;28;20036;-71
2021/04/24 04:13:47;;;;;;;35.95;13.02;;;6.20;96.50;;;;;;5115797;28;20024;-70
2021/04/24 04:16:13;;;;;;;32.92;12.90;;;6.20;95.20;;;;;;5115597;28;20031;-71
2021/04/24 04:18:39;;;;;;;45.58;14.65;;;6.10;95.60;;;;;;5115247;28;20024;-70
2021/04/24 04:21:06;;;;;;;34.97;12.98;;;6.20;95.70;;;;;;5097035;28;20100;-71
2021/04/24 04:23:33;;;;;;;34.95;14.38;;;6.20;96.00;;;;;;5115510;28;20024;-71
2021/04/24 04:25:59;;;;;;;44.95;16.45;;;6.20;96.00;;;;;;5115067;28;20039;-73
2021/04/24 04:28:26;;;;;;;38.80;15.57;;;6.20;96.90;;;;;;5096988;28;20065;-73
2021/04/24 04:30:53;;;;;;;40.42;17.70;;;6.20;96.90;;;;;;5097025;28;20089;-73
2021/04/24 04:33:19;;;;;;;42.42;18.55;;;6.20;96.50;;;;;;5114990;28;20035;-70
2021/04/24 04:35:46;;;;;;;41.53;18.00;;;6.20;96.70;;;;;;5115151;28;20024;-71
2021/04/24 04:38:13;;;;;;;39.95;19.73;;;6.20;96.50;;;;;;5096770;28;20030;-73
2021/04/24 04:40:40;;;;;;;40.17;21.98;;;6.20;96.50;;;;;;5096633;28;20437;-72
2021/04/24 04:43:06;;;;;;;49.92;25.60;;;6.20;96.20;;;;;;5115307;28;20363;-73
2021/04/24 04:45:33;;;;;;;55.33;30.80;;;6.20;96.30;;;;;;5114946;28;20027;-73
2021/04/24 04:47:59;;;;;;;58.00;32.17;;;6.20;96.60;;;;;;5096875;28;20426;-73
2021/04/24 04:50:28;;;;;;;35.65;21.17;;;6.30;96.30;;;;;;5114076;28;20058;-72
2021/04/24 04:52:55;;;;;;;37.83;20.65;;;6.30;96.40;;;;;;5096712;28;20369;-72
2021/04/24 04:55:21;;;;;;;46.72;21.35;;;6.40;96.90;;;;;;5114754;28;20031;-72
2021/04/24 04:57:47;;;;;;;50.63;21.88;;;6.50;96.90;;;;;;5096089;28;20030;-71
2021/04/24 05:00:15;;;;;;;45.55;20.70;;;6.70;97.20;;;;;;5114637;28;20035;-71
2021/04/24 05:02:42;;;;;;;82.55;37.65;;;6.70;97.50;;;;;;5114632;28;20023;-72
2021/04/24 05:05:08;;;;;;;60.17;29.02;;;6.80;97.30;;;;;;5096398;28;20435;-72
2021/04/24 05:07:34;;;;;;;47.40;24.00;;;6.80;96.40;;;;;;5096221;28;20031;-72
2021/04/24 05:10:00;;;;;;;46.80;24.30;;;6.90;96.30;;;;;;5096244;28;20368;-74
2021/04/24 05:12:26;;;;;;;40.75;21.20;;;6.90;96.00;;;;;;5114504;28;20036;-72
2021/04/24 05:14:52;;;;;;;41.78;20.63;;;7.10;95.50;;;;;;5114402;28;20024;-73
2021/04/24 05:17:18;;;;;;;44.83;22.02;;;7.20;95.50;;;;;;5114111;28;20034;-73
2021/04/24 05:19:44;;;;;;;40.83;20.73;;;7.20;95.60;;;;;;5096086;28;20797;-73
2021/04/24 05:22:10;;;;;;;47.17;23.95;;;7.30;95.50;;;;;;5114187;28;20452;-72
2021/04/24 05:24:36;;;;;;;42.53;22.58;;;7.40;95.10;;;;;;5095991;28;20023;-73
2021/04/24 05:27:02;;;;;;;42.90;23.00;;;7.50;95.40;;;;;;5074205;28;20044;-73
2021/04/24 05:29:29;;;;;;;56.78;25.10;;;7.60;95.30;;;;;;5073592;28;20021;-74
2021/04/24 05:31:54;;;;;;;54.80;25.98;;;7.60;95.00;;;;;;5072133;28;20036;-72
2021/04/24 05:34:20;;;;;;;46.10;23.40;;;7.70;95.10;;;;;;5073286;28;20024;-73
2021/04/24 05:36:46;;;;;;;49.17;25.35;;;7.80;95.10;;;;;;5073425;28;20059;-73
2021/04/24 05:39:12;;;;;;;52.47;24.90;;;7.90;95.00;;;;;;5072077;28;20081;-73
2021/04/24 05:41:38;;;;;;;51.55;24.65;;;7.90;94.70;;;;;;5071960;28;20090;-74
2021/04/24 05:44:05;;;;;;;52.28;25.02;;;8.00;94.90;;;;;;5073078;28;20515;-73
2021/04/24 05:46:31;;;;;;;51.55;25.92;;;8.10;94.90;;;;;;5072022;28;20488;-72
2021/04/24 05:48:57;;;;;;;53.63;27.38;;;8.20;95.00;;;;;;5073427;28;20039;-73
2021/04/24 05:51:24;;;;;;;51.30;26.02;;;8.20;94.60;;;;;;5071866;28;20033;-74
2021/04/24 05:53:52;;;;;;;48.55;27.50;;;8.30;95.10;;;;;;5073235;28;20427;-74
2021/04/24 05:56:19;;;;;;;47.60;28.17;;;8.40;95.10;;;;;;5071899;28;20055;-73
2021/04/24 05:58:45;;;;;;;54.60;29.60;;;8.50;95.50;;;;;;5072917;28;20538;-73
2021/04/24 06:01:11;;;;;;;76.93;34.85;;;8.60;95.70;;;;;;5072216;28;20037;-73
2021/04/24 06:03:37;;;;;;;68.85;33.30;;;8.70;95.90;;;;;;5072856;28;20475;-73
2021/04/24 06:06:03;;;;;;;61.50;32.05;;;8.80;95.40;;;;;;5071731;28;20079;-74
2021/04/24 06:08:29;;;;;;;63.88;32.35;;;8.90;94.90;;;;;;5072781;28;20020;-74
2021/04/24 06:10:55;;;;;;;55.55;29.85;;;9.00;95.20;;;;;;5073294;28;20077;-71
2021/04/24 06:13:21;;;;;;;50.42;27.63;;;9.00;94.80;;;;;;5073028;28;20048;-73
2021/04/24 06:15:48;;;;;;;45.45;24.73;;;9.10;93.90;;;;;;5073295;28;20489;-72
2021/04/24 06:18:14;;;;;;;45.65;23.00;;;9.10;93.50;;;;;;5073011;28;20032;-75
2021/04/24 06:20:44;;;;;;;44.17;23.98;;;9.20;94.40;;;;;;5071480;28;20481;-74
2021/04/24 06:23:10;;;;;;;44.35;23.60;;;9.30;94.10;;;;;;5072737;28;20024;-75
2021/04/24 06:25:36;;;;;;;49.65;24.77;;;9.40;94.30;;;;;;5071227;28;20098;-75
2021/04/24 06:28:03;;;;;;;46.75;25.70;;;9.50;93.90;;;;;;5071530;28;20033;-75
2021/04/24 06:30:29;;;;;;;50.17;27.42;;;9.70;94.50;;;;;;5072779;28;20035;-75
2021/04/24 06:32:55;;;;;;;50.20;26.80;;;9.70;94.30;;;;;;5071502;28;20032;-74
2021/04/24 06:35:22;;;;;;;54.85;28.00;;;9.90;94.90;;;;;;5071426;28;20025;-73
2021/04/24 06:37:49;;;;;;;50.08;25.88;;;10.00;94.90;;;;;;5072808;28;20028;-74
2021/04/24 06:40:16;;;;;;;50.80;26.67;;;10.10;94.90;;;;;;5072618;28;20136;-74
2021/04/24 06:42:43;;;;;;;60.47;31.58;;;10.30;94.30;;;;;;5072543;28;20024;-75
2021/04/24 06:45:10;;;;;;;73.70;41.10;;;10.50;94.80;;;;;;5070851;28;20028;-74
2021/04/24 06:47:36;;;;;;;75.90;39.63;;;10.60;93.70;;;;;;5071107;28;20530;-72
2021/04/24 06:50:05;;;;;;;46.67;19.30;;;11.10;99.90;;;;;;5072406;28;20119;-73
2021/04/24 06:52:31;;;;;;;73.30;29.25;;;11.90;99.90;;;;;;5072580;28;20035;-72
2021/04/24 06:54:57;;;;;;;88.05;38.08;;;12.60;99.90;;;;;;5072361;28;20020;-72
2021/04/24 06:57:23;;;;;;;91.90;42.05;;;13.10;99.90;;;;;;5072182;28;20117;-70
2021/04/24 06:59:48;;;;;;;78.55;35.58;;;13.40;97.20;;;;;;5070574;28;20072;-72
2021/04/24 07:02:16;;;;;;;82.43;35.92;;;13.70;96.70;;;;;;5070119;28;20482;-70
2021/04/24 07:04:42;;;;;;;70.60;32.65;;;14.10;96.50;;;;;;5072389;28;20036;-71
2021/04/24 07:07:09;;;;;;;67.53;29.98;;;14.40;96.60;;;;;;5072495;28;20147;-70
2021/04/24 07:09:35;;;;;;;57.17;27.08;;;14.70;92.30;;;;;;5072269;28;20111;-71
2021/04/24 07:12:01;;;;;;;48.13;25.42;;;14.90;91.20;;;;;;5072440;28;20029;-70
2021/04/24 07:14:28;;;;;;;56.45;25.30;;;;;;;;;;5072512;28;20474;-70
2021/04/24 07:16:54;;;;;;;43.30;22.77;;;;;;;;;;5074720;28;20427;-71
2021/04/24 07:19:20;;;;;;;42.42;20.58;;;;;;;;;;5074650;28;20085;-72
2021/04/24 07:21:47;;;;;;;50.13;21.63;;;;;;;;;;5075892;28;20040;-71
2021/04/24 07:24:13;;;;;;;47.83;21.05;;;;;;;;;;5076209;28;20052;-72
2021/04/24 07:26:39;;;;;;;39.25;18.77;;;;;;;;;;5104525;28;20131;-71
2021/04/24 07:29:06;;;;;;;40.58;17.85;;;;;;;;;;5098176;28;20031;-70
2021/04/24 07:31:32;;;;;;;33.65;15.30;;;;;;;;;;5096888;28;20537;-70
2021/04/24 07:33:59;;;;;;;38.78;16.13;;;;;;;;;;5114752;28;20027;-71
2021/04/24 07:36:29;;;;;;;37.28;16.67;;;;;;;;;;5115523;28;20036;-71
2021/04/24 07:38:55;;;;;;;28.15;14.40;;;;;;;;;;5116451;28;20106;-71
2021/04/24 07:41:22;;;;;;;33.25;15.32;;;;;;;;;;5116103;28;20020;-71
2021/04/24 07:43:48;;;;;;;33.55;14.80;;;;;;;;;;5097621;28;20023;-70
2021/04/24 07:46:14;;;;;;;27.65;13.35;;;;;;;;;;5097621;28;20067;-71
2021/04/24 07:48:41;;;;;;;30.10;12.77;;;;;;;;;;5116445;28;20070;-71
2021/04/24 07:51:07;;;;;;;25.17;12.43;;;;;;;;;;5116097;28;20384;-72
2021/04/24 07:53:33;;;;;;;36.28;13.35;;;;;;;;;;5097762;28;20023;-70
2021/04/24 07:55:59;;;;;;;23.40;12.57;;;;;;;;;;5115902;28;20098;-73
2021/04/24 07:58:25;;;;;;;25.15;11.23;;;;;;;;;;5097695;28;20055;-72
2021/04/24 08:00:52;;;;;;;25.15;11.80;;;;;;;;;;5115849;28;20065;-71
2021/04/24 08:03:18;;;;;;;23.08;11.45;;;;;;;;;;5097529;28;20401;-71
2021/04/24 08:05:44;;;;;;;25.60;11.38;;;;;;;;;;5115758;28;20024;-70
2021/04/24 08:08:10;;;;;;;27.17;10.57;;;17.80;61.60;;;;;;5115753;28;20055;-71
2021/04/24 08:10:36;;;;;;;24.02;9.52;;;17.90;65.70;;;;;;5115660;28;20107;-72
2021/04/24 08:13:05;;;;;;;25.80;10.05;;;17.40;56.50;;;;;;5097333;28;20034;-72
2021/04/24 08:15:32;;;;;;;28.55;14.43;;;17.60;58.60;;;;;;5115631;28;20023;-75
2021/04/24 08:17:58;;;;;;;21.85;10.13;;;17.00;55.30;;;;;;5115604;28;20035;-72
2021/04/24 08:20:24;;;;;;;33.55;16.73;;;17.20;63.80;;;;;;5097006;28;20023;-73
2021/04/24 08:22:50;;;;;;;23.70;9.20;;;17.50;59.10;;;;;;5115418;28;20020;-72
2021/04/24 08:25:16;;;;;;;25.60;9.20;;;17.80;63.60;;;;;;5115228;28;20044;-73
2021/04/24 08:27:43;;;;;;;21.52;10.15;;;17.90;62.00;;;;;;5115668;28;20417;-75
2021/04/24 08:30:13;;;;;;;27.05;9.68;;;17.60;55.60;;;;;;5096982;28;20027;-74
2021/04/24 08:32:40;;;;;;;22.10;9.73;;;17.70;56.70;;;;;;5114969;28;20380;-74
2021/04/24 08:35:07;;;;;;;20.73;9.73;;;17.90;60.40;;;;;;5096502;28;20105;-70
2021/04/24 08:37:35;;;;;;;24.05;9.40;;;18.30;66.10;;;;;;5114818;28;20015;-71
2021/04/24 08:40:01;;;;;;;22.48;9.25;;;18.60;57.60;;;;;;5115055;28;20027;-70
2021/04/24 08:42:28;;;;;;;27.83;13.98;;;18.60;57.00;;;;;;5096679;28;20039;-70
2021/04/24 08:44:53;;;;;;;35.75;15.15;;;18.50;50.50;;;;;;5115002;28;20032;-70
2021/04/24 08:47:21;;;;;;;21.83;9.93;;;18.50;54.60;;;;;;5096672;28;20030;-71
2021/04/24 08:49:50;;;;;;;19.92;8.07;;;18.80;54.10;;;;;;5114937;28;20023;-71
2021/04/24 08:52:19;;;;;;;20.70;8.35;;;19.20;56.60;;;;;;5116031;27;20024;-71
2021/04/24 08:54:45;;;;;;;22.05;11.40;;;19.10;58.70;;;;;;5095602;28;20160;-72
2021/04/24 08:57:11;;;;;;;19.27;8.23;;;18.90;50.00;;;;;;5094745;28;20513;-74
2021/04/24 08:59:37;;;;;;;23.65;8.60;;;19.10;58.20;;;;;;5114230;28;20094;-74
2021/04/24 09:02:04;;;;;;;17.90;7.07;;;19.20;53.00;;;;;;5095911;28;20049;-74
2021/04/24 09:04:30;;;;;;;15.95;6.95;;;19.10;49.00;;;;;;5096078;28;20051;-75
2021/04/24 09:06:57;;;;;;;17.80;6.90;;;18.90;47.80;;;;;;5098289;27;20373;-72
2021/04/24 09:09:27;;;;;;;15.48;7.32;;;19.20;50.60;;;;;;5134948;27;20023;-72
2021/04/24 09:11:57;;;;;;;22.15;6.93;;;19.00;52.10;;;;;;5133956;27;20023;-71
2021/04/24 09:14:26;;;;;;;25.88;8.13;;;19.30;52.50;;;;;;5116261;27;20420;-71
2021/04/24 09:16:53;;;;;;;24.20;11.43;;;19.50;53.10;;;;;;5134735;27;20090;-72
2021/04/24 09:19:34;;;;;;;23.13;7.82;;;19.60;49.70;;;;;;5134958;27;20026;-71
2021/04/24 09:22:22;;;;;;;17.73;7.53;;;19.80;51.20;;;;;;5134787;27;20075;-71
2021/04/24 09:24:54;;;;;;;18.98;7.43;;;19.90;46.90;;;;;;5113742;27;20058;-71
2021/04/24 09:27:41;;;;;;;19.38;8.40;;;19.90;53.80;;;;;;5134725;27;20023;-70
2021/04/24 09:30:21;;;;;;;13.20;6.70;;;20.10;50.40;;;;;;5134760;27;20035;-72
2021/04/24 09:32:47;;;;;;;15.73;6.82;;;20.40;50.80;;;;;;5116118;27;20033;-70
2021/04/24 09:35:21;;;;;;;18.08;8.32;;;20.60;50.50;;;;;;5116203;27;20054;-69
2021/04/24 09:38:02;;;;;;;20.75;8.45;;;20.70;46.60;;;;;;5134119;27;20083;-73
2021/04/24 09:40:28;;;;;;;17.00;7.20;;;20.10;46.10;;;;;;5134463;27;20456;-74
2021/04/24 09:43:05;;;;;;;17.35;7.93;;;19.80;45.00;;;;;;5116135;27;20122;-70
2021/04/24 09:45:40;;;;;;;18.48;7.57;;;20.00;47.50;;;;;;5134324;27;20055;-70
2021/04/24 09:48:19;;;;;;;17.30;7.78;;;20.40;47.10;;;;;;5111014;27;20031;-72
2021/04/24 09:50:45;;;;;;;14.63;7.47;;;;;;;;;;5110198;27;20024;-73
2021/04/24 09:53:14;;;;;;;11.25;6.22;;;;;;;;;;5115323;27;20463;-73
2021/04/24 09:55:42;;;;;;;16.17;8.02;;;;;;;;;;5115228;28;20110;-71
2021/04/24 09:58:25;;;;;;;16.88;7.38;;;;;;;;;;5133708;27;20115;-71
2021/04/24 10:00:51;;;;;;;16.45;6.35;;;;;;;;;;5134073;27;20067;-74
2021/04/24 10:03:36;;;;;;;13.50;7.30;;;;;;;;;;5134186;27;20475;-71
2021/04/24 10:06:21;;;;;;;14.77;6.97;;;;;;;;;;5115722;27;20062;-74
2021/04/24 10:08:48;;;;;;;16.33;6.68;;;;;;;;;;5115807;27;20027;-73
2021/04/24 10:11:34;;;;;;;14.15;6.78;;;;;;;;;;5115683;28;20375;-74
2021/04/24 10:14:01;;;;;;;17.23;7.03;;;;;;;;;;5134150;27;20072;-73
2021/04/24 10:16:36;;;;;;;13.30;6.88;;;;;;;;;;5115659;28;20023;-74
2021/04/24 10:19:04;;;;;;;14.93;7.22;;;;;;;;;;5115339;28;20051;-74
2021/04/24 10:21:31;;;;;;;18.77;7.40;;;;;;;;;;5133926;28;20118;-75
2021/04/24 10:23:58;;;;;;;20.33;12.90;;;;;;;;;;5133707;28;20031;-73
2021/04/24 10:26:25;;;;;;;13.85;7.88;;;;;;;;;;5111598;28;20055;-72
2021/04/24 10:28:53;;;;;;;15.23;7.22;;;22.30;38.30;;;;;;5112153;28;20032;-73
2021/04/24 10:31:19;;;;;;;16.15;7.38;;;22.60;38.20;;;;;;5113257;28;20028;-71
2021/04/24 10:33:45;;;;;;;13.80;6.90;;;23.10;37.80;;;;;;5113225;28;20019;-72
2021/04/24 10:36:11;;;;;;;12.98;6.90;;;23.00;37.70;;;;;;5111900;28;20471;-74
2021/04/24 10:38:51;;;;;;;13.00;6.57;;;23.50;38.00;;;;;;5113417;28;20081;-73
2021/04/24 10:41:31;;;;;;;15.40;7.50;;;24.10;36.90;;;;;;5113227;28;20055;-74
2021/04/24 10:44:04;;;;;;;16.25;7.78;;;25.40;33.90;;;;;;5109385;28;20486;-72
2021/04/24 10:46:44;;;;;;;14.30;7.47;;;25.60;36.90;;;;;;5112205;28;20028;-73
2021/04/24 10:49:23;;;;;;;15.70;7.38;;;25.80;33.70;;;;;;5096468;28;20062;-71
2021/04/24 10:52:05;;;;;;;13.27;6.45;;;26.40;33.20;;;;;;5116877;28;20051;-71
2021/04/24 10:54:34;;;;;;;15.55;7.43;;;26.60;33.90;;;;;;5116628;28;20388;-73
2021/04/24 10:57:02;;;;;;;17.48;7.50;;;26.80;32.50;;;;;;5116951;28;20099;-73
2021/04/24 10:59:30;;;;;;;15.63;6.97;;;27.20;30.80;;;;;;5115223;28;20031;-72
2021/04/24 11:02:02;;;;;;;12.80;6.60;;;;;;;;;;5113273;28;20046;-72
2021/04/24 11:04:45;;;;;;;15.95;6.38;;;;;;;;;;5116177;28;20090;-74
2021/04/24 11:07:24;;;;;;;16.15;7.90;;;;;;;;;;5116681;28;20099;-72
2021/04/24 11:10:09;;;;;;;15.13;9.30;;;;;;;;;;5115440;28;20072;-72
2021/04/24 11:12:38;;;;;;;18.00;7.28;;;;;;;;;;5115298;28;20081;-73
2021/04/24 11:15:06;;;;;;;10.48;6.82;;;;;;;;;;5115273;28;20051;-71
2021/04/24 11:17:33;;;;;;;10.25;6.18;;;;;;;;;;5116441;28;20469;-71
2021/04/24 11:19:59;;;;;;;15.02;7.28;;;;;;;;;;5116501;28;20016;-72
2021/04/24 11:22:32;;;;;;;25.05;16.60;;;;;;;;;;5116221;28;20082;-72
2021/04/24 11:25:17;;;;;;;13.73;7.68;;;;;;;;;;5119948;27;20095;-72
2021/04/24 11:28:06;;;;;;;17.70;10.32;;;;;;;;;;5136544;27;20053;-71
2021/04/24 11:30:52;;;;;;;11.15;6.75;;;;;;;;;;5136853;27;20030;-73
2021/04/24 11:33:41;;;;;;;12.25;6.93;;;;;;;;;;5136551;27;20367;-72
2021/04/24 11:36:20;;;;;;;14.45;6.82;;;;;;;;;;5136048;27;20026;-76
2021/04/24 11:39:01;;;;;;;17.90;7.78;;;;;;;;;;5136924;27;20050;-75
2021/04/24 11:41:30;;;;;;;15.90;9.98;;;;;;;;;;5117816;27;20084;-72
2021/04/24 11:43:57;;;;;;;12.65;7.32;;;;;;;;;;5135806;27;20467;-74
2021/04/24 11:46:34;;;;;;;16.02;9.10;;;;;;;;;;5115832;27;20027;-73
2021/04/24 11:49:08;;;;;;;15.18;6.20;;;;;;;;;;5136313;27;20015;-74
2021/04/24 11:51:57;;;;;;;10.95;6.70;;;;;;;;;;5136057;27;20054;-71
2021/04/24 11:54:38;;;;;;;9.45;6.20;;;;;;;;;;5117259;27;20019;-75
2021/04/24 11:57:06;;;;;;;10.27;5.55;;;;;;;;;;5134619;27;20023;-74
2021/04/24 11:59:33;;;;;;;10.63;6.72;;;;;;;;;;5115972;27;20046;-74
2021/04/24 12:02:03;;;;;;;20.65;6.45;;;;;;;;;;5135665;27;20057;-75
2021/04/24 12:04:31;;;;;;;12.57;5.90;;;;;;;;;;5115105;28;20020;-75
2021/04/24 12:07:01;;;;;;;8.00;5.72;;;;;;;;;;5127697;27;20012;-74
2021/04/24 12:09:28;;;;;;;13.18;6.57;;;;;;;;;;5134737;27;20110;-74
2021/04/24 12:11:56;;;;;;;10.27;6.40;;;;;;;;;;5113441;27;20539;-73
2021/04/24 12:14:23;;;;;;;12.45;6.80;;;;;;;;;;5135611;27;20023;-73
2021/04/24 12:16:50;;;;;;;10.30;5.22;;;;;;;;;;5135790;27;20023;-73
2021/04/24 12:19:23;;;;;;;9.80;6.07;;;;;;;;;;5136119;27;20027;-71
2021/04/24 12:22:08;;;;;;;10.18;6.05;;;;;;;;;;5117528;27;20028;-72
2021/04/24 12:24:35;;;;;;;9.88;5.93;;;;;;;;;;5134044;27;20023;-75
2021/04/24 12:27:20;;;;;;;7.88;5.45;;;;;;;;;;5135671;27;20531;-71
2021/04/24 12:29:49;;;;;;;14.02;11.32;;;;;;;;;;5135586;27;20023;-72
2021/04/24 12:32:16;;;;;;;13.30;6.00;;;;;;;;;;5116699;27;20027;-73
2021/04/24 12:34:42;;;;;;;8.18;5.35;;;36.70;24.00;;;;;;5117201;27;20458;-73
2021/04/24 12:37:15;;;;;;;8.93;6.40;;;36.50;24.30;;;;;;5135336;27;20059;-72
2021/04/24 12:39:42;;;;;;;12.73;6.68;;;;;;;;;;5135521;27;20027;-74
2021/04/24 12:42:12;;;;;;;10.57;6.38;;;34.60;24.80;;;;;;5135483;27;20031;-73
2021/04/24 12:44:40;;;;;;;12.32;6.45;;;34.90;25.00;;;;;;5116825;27;20081;-74
2021/04/24 12:47:07;;;;;;;12.63;5.95;;;34.60;25.10;;;;;;5118512;27;20058;-74
2021/04/24 12:49:33;;;;;;;13.45;6.25;;;34.60;24.60;;;;;;5136128;27;20027;-73
2021/04/24 12:52:05;;;;;;;9.23;6.20;;;35.50;25.40;;;;;;5137012;27;20027;-73
2021/04/24 12:54:30;;;;;;;;;;;36.30;25.80;;;;;;5137238;27;20022;-74
2021/04/24 12:57:18;;;;;;;12.50;5.50;;;36.50;24.70;;;;;;5136048;27;19907;-71
2021/04/24 12:59:47;;;;;;;8.93;5.75;;;36.80;24.60;;;;;;5136686;27;20031;-72
2021/04/24 13:02:14;;;;;;;14.30;7.88;;;37.10;23.80;;;;;;5136558;27;20023;-73
2021/04/24 13:04:59;;;;;;;14.60;10.45;;;37.20;24.30;;;;;;5136085;27;20031;-74
2021/04/24 13:07:25;;;;;;;11.05;6.63;;;36.10;23.80;;;;;;5135480;27;20023;-73